Time;durP1;ratioP1;P1;durP2;ratioP2;P2;SDS_P1;SDS_P2;PMS_P1;PMS_P2;Temp;Humidity;BMP_temperature;BMP_pressure;BME280_temperature;BME280_humidity;BME280_pressure;Samples;Min_cycle;Max_cycle;Signal;HPM_P1;HPM_P2
2023/06/21 00:00:30;;;;;;;33.00;24.37;;;19.00;99.90;;;;;;5046742;28;20509;-68
2023/06/21 00:02:57;;;;;;;29.83;24.00;;;19.00;99.90;;;;;;5050367;28;20080;-68
2023/06/21 00:05:22;;;;;;;32.23;26.43;;;19.00;99.90;;;;;;5047590;28;20044;-68
2023/06/21 00:07:52;;;;;;;34.47;26.47;;;18.90;99.90;;;;;;5051594;28;20363;-68
2023/06/21 00:10:20;;;;;;;35.10;26.63;;;19.00;99.90;;;;;;5040899;28;20102;-68
2023/06/21 00:12:46;;;;;;;36.70;26.27;;;19.00;99.90;;;;;;5050427;28;20694;-68
2023/06/21 00:15:12;;;;;;;36.63;27.43;;;19.00;99.90;;;;;;5049676;28;20035;-68
2023/06/21 00:17:38;;;;;;;39.03;26.80;;;19.00;99.90;;;;;;5050803;28;20287;-68
2023/06/21 00:20:04;;;;;;;35.00;27.03;;;19.00;99.90;;;;;;5050796;28;20045;-68
2023/06/21 00:22:30;;;;;;;38.30;27.07;;;19.10;99.90;;;;;;5066704;28;20041;-68
2023/06/21 00:24:57;;;;;;;40.20;28.07;;;19.10;99.90;;;;;;5050514;28;20428;-68
2023/06/21 00:27:22;;;;;;;37.60;28.27;;;19.10;99.90;;;;;;5050540;28;20049;-68
2023/06/21 00:29:48;;;;;;;38.27;29.00;;;19.20;99.90;;;;;;5034282;28;20282;-68
2023/06/21 00:32:14;;;;;;;40.10;28.67;;;19.20;99.90;;;;;;5049240;28;20067;-68
2023/06/21 00:34:40;;;;;;;41.10;28.90;;;19.20;99.90;;;;;;5048904;28;20053;-68
2023/06/21 00:37:05;;;;;;;38.90;29.20;;;19.30;99.90;;;;;;5050671;28;20040;-68
2023/06/21 00:39:31;;;;;;;41.13;29.13;;;19.30;99.90;;;;;;5033000;28;20110;-68
2023/06/21 00:41:57;;;;;;;39.87;28.53;;;19.30;99.90;;;;;;5044290;28;20032;-68
2023/06/21 00:44:23;;;;;;;41.03;29.53;;;19.30;99.90;;;;;;5048934;28;20329;-68
2023/06/21 00:46:51;;;;;;;38.10;29.63;;;19.30;99.90;;;;;;5048876;28;20512;-68
2023/06/21 00:49:17;;;;;;;41.07;29.60;;;19.30;99.90;;;;;;5048266;28;20420;-68
2023/06/21 00:51:44;;;;;;;40.80;29.80;;;19.20;99.90;;;;;;5052544;28;20041;-68
2023/06/21 00:54:16;;;;;;;44.30;32.00;;;19.20;99.90;;;;;;5048323;28;20033;-68
2023/06/21 00:56:46;;;;;;;40.23;30.43;;;19.10;99.90;;;;;;5050130;28;20282;-68
2023/06/21 00:59:12;;;;;;;42.73;31.80;;;19.10;99.90;;;;;;5051522;28;20276;-68
2023/06/21 01:01:38;;;;;;;47.53;34.10;;;19.10;99.90;;;;;;5051380;28;20640;-68
2023/06/21 01:04:06;;;;;;;44.77;33.90;;;19.00;99.90;;;;;;5025970;28;20037;-68
2023/06/21 01:06:54;;;;;;;45.00;33.90;;;19.00;99.90;;;;;;5051524;28;20041;-68
2023/06/21 01:09:32;;;;;;;48.77;33.77;;;18.90;99.90;;;;;;5050735;28;20317;-68
2023/06/21 01:12:07;;;;;;;48.80;34.40;;;18.90;99.90;;;;;;5050797;28;20341;-68
2023/06/21 01:14:55;;;;;;;50.33;36.50;;;18.90;99.90;;;;;;5048709;28;20651;-68
2023/06/21 01:17:21;;;;;;;51.53;37.20;;;18.90;99.90;;;;;;5050523;28;20275;-68
2023/06/21 01:19:55;;;;;;;48.00;34.70;;;18.80;99.90;;;;;;5046594;28;20358;-68
2023/06/21 01:22:21;;;;;;;46.83;35.57;;;18.80;99.90;;;;;;5046105;28;20639;-68
2023/06/21 01:25:27;;;;;;;44.07;34.63;;;18.70;99.90;;;;;;5031806;28;20284;-68
2023/06/21 01:28:25;;;;;;;42.97;33.58;;;18.70;99.90;;;;;;5049511;28;20287;-68
2023/06/21 01:30:53;;;;;;;44.63;33.90;;;18.70;99.90;;;;;;5049447;28;20045;-68
2023/06/21 01:33:19;;;;;;;42.53;33.60;;;18.60;99.90;;;;;;5041394;28;20713;-68
2023/06/21 01:35:45;;;;;;;40.47;32.40;;;18.60;99.90;;;;;;5063090;28;20764;-68
2023/06/21 01:38:11;;;;;;;40.47;32.83;;;18.50;99.90;;;;;;5041373;28;20345;-68
2023/06/21 01:40:37;;;;;;;44.73;33.93;;;18.50;99.90;;;;;;5049863;28;20835;-68
2023/06/21 01:43:05;;;;;;;45.60;33.57;;;18.50;99.90;;;;;;5049462;28;20802;-68
2023/06/21 01:45:31;;;;;;;41.70;33.47;;;18.40;99.90;;;;;;5048572;28;20284;-68
2023/06/21 01:47:57;;;;;;;43.77;32.73;;;18.40;99.90;;;;;;5049162;28;20378;-68
2023/06/21 01:50:24;;;;;;;42.57;33.03;;;18.30;99.90;;;;;;5049129;28;20041;-68
2023/06/21 01:52:51;;;;;;;40.87;32.73;;;18.30;99.90;;;;;;5047556;28;20824;-68
2023/06/21 01:55:19;;;;;;;44.10;33.43;;;18.30;99.90;;;;;;5049115;28;20879;-68
2023/06/21 01:57:45;;;;;;;44.50;34.27;;;18.30;99.90;;;;;;5049252;28;20534;-68
2023/06/21 02:00:16;;;;;;;44.27;34.60;;;18.30;99.90;;;;;;5046811;28;20295;-68
2023/06/21 02:03:07;;;;;;;45.90;33.27;;;18.30;99.90;;;;;;5065699;28;20370;-68
2023/06/21 02:05:34;;;;;;;48.40;34.80;;;18.30;99.90;;;;;;5051963;28;20708;-68
2023/06/21 02:08:01;;;;;;;46.97;34.20;;;18.20;99.90;;;;;;5048621;28;20291;-68
2023/06/21 02:10:27;;;;;;;47.73;34.53;;;18.30;99.90;;;;;;5048007;28;20666;-68
2023/06/21 02:12:53;;;;;;;45.60;33.13;;;18.30;99.90;;;;;;5054231;28;20326;-68
2023/06/21 02:15:19;;;;;;;46.57;32.77;;;18.30;99.90;;;;;;5048095;28;20814;-68
2023/06/21 02:17:48;;;;;;;41.97;31.37;;;18.20;99.90;;;;;;5065511;28;20040;-68
2023/06/21 02:20:14;;;;;;;42.47;30.33;;;18.20;99.90;;;;;;5047764;28;20369;-68
2023/06/21 02:22:44;;;;;;;45.90;32.37;;;18.20;99.90;;;;;;5048182;28;20299;-68
2023/06/21 02:25:10;;;;;;;47.63;31.67;;;18.20;99.90;;;;;;5046071;28;20650;-68
2023/06/21 02:27:36;;;;;;;41.37;30.53;;;18.10;99.90;;;;;;5057792;28;20283;-68
2023/06/21 02:30:02;;;;;;;41.97;29.50;;;18.10;99.90;;;;;;5048169;28;20295;-68
2023/06/21 02:32:28;;;;;;;43.57;28.90;;;18.10;99.90;;;;;;5046596;28;20080;-68
2023/06/21 02:34:54;;;;;;;39.37;28.57;;;18.10;99.90;;;;;;5048758;28;20308;-68
2023/06/21 02:37:19;;;;;;;42.97;28.67;;;18.10;99.90;;;;;;5048973;28;20073;-68
2023/06/21 02:39:45;;;;;;;42.07;28.63;;;18.10;99.90;;;;;;5047619;28;20356;-68
2023/06/21 02:42:11;;;;;;;41.23;28.63;;;18.10;99.90;;;;;;5031640;28;20049;-68
2023/06/21 02:44:36;;;;;;;42.63;28.83;;;18.10;99.90;;;;;;5031410;28;20070;-68
2023/06/21 02:47:02;;;;;;;45.33;29.30;;;18.20;99.90;;;;;;5048152;28;20132;-68
2023/06/21 02:49:28;;;;;;;41.40;29.53;;;18.20;99.90;;;;;;5047511;28;20405;-68
2023/06/21 02:51:54;;;;;;;39.33;27.93;;;18.20;99.90;;;;;;5042776;28;20500;-68
2023/06/21 02:54:19;;;;;;;37.60;27.60;;;18.20;99.90;;;;;;5047721;28;20072;-68
2023/06/21 02:56:45;;;;;;;40.03;27.50;;;18.20;99.90;;;;;;5048004;28;20389;-68
2023/06/21 02:59:12;;;;;;;38.33;26.13;;;18.10;99.90;;;;;;5031213;28;20029;-68
2023/06/21 03:01:38;;;;;;;36.47;27.57;;;18.10;99.90;;;;;;5048659;28;20045;-68
2023/06/21 03:04:04;;;;;;;39.03;26.23;;;18.00;99.90;;;;;;5047253;28;20310;-68
2023/06/21 03:06:29;;;;;;;38.80;27.00;;;18.00;99.90;;;;;;5046745;28;20643;-68
2023/06/21 03:08:57;;;;;;;42.37;28.60;;;17.90;99.90;;;;;;5044361;28;20283;-68
2023/06/21 03:11:23;;;;;;;35.87;25.00;;;17.90;99.90;;;;;;5046777;28;20041;-68
2023/06/21 03:13:49;;;;;;;37.80;25.63;;;17.80;99.90;;;;;;5046330;28;20799;-68
2023/06/21 03:16:15;;;;;;;38.33;25.00;;;17.80;99.90;;;;;;5046524;28;20037;-68
2023/06/21 03:18:41;;;;;;;36.60;24.77;;;17.80;99.90;;;;;;5046963;28;20116;-68
2023/06/21 03:21:08;;;;;;;40.70;25.43;;;17.70;99.90;;;;;;5047168;28;20405;-68
2023/06/21 03:23:34;;;;;;;38.43;25.20;;;17.70;99.90;;;;;;5047425;28;20044;-68
2023/06/21 03:25:59;;;;;;;41.27;24.83;;;17.60;99.90;;;;;;5063955;28;20295;-68
2023/06/21 03:28:25;;;;;;;40.87;26.00;;;17.60;99.90;;;;;;5047754;28;20125;-68
2023/06/21 03:30:51;;;;;;;36.73;24.70;;;17.60;99.90;;;;;;5046744;28;20375;-68
2023/06/21 03:33:17;;;;;;;43.10;25.57;;;17.50;99.90;;;;;;5031007;28;20734;-68
2023/06/21 03:35:43;;;;;;;38.97;24.30;;;17.50;99.90;;;;;;5039409;28;20387;-68
2023/06/21 03:38:08;;;;;;;40.07;24.87;;;17.40;99.90;;;;;;5064059;28;20344;-68
2023/06/21 03:40:34;;;;;;;37.90;24.37;;;17.40;99.90;;;;;;5046635;28;20356;-68
2023/06/21 03:43:00;;;;;;;35.63;23.97;;;17.40;99.90;;;;;;5052977;28;20242;-68
2023/06/21 03:45:26;;;;;;;36.23;23.47;;;17.40;99.90;;;;;;5063312;28;20040;-68
2023/06/21 03:47:51;;;;;;;39.93;24.10;;;17.40;99.90;;;;;;5042429;28;20138;-68
2023/06/21 03:50:17;;;;;;;40.53;23.90;;;17.40;99.90;;;;;;5045050;28;20048;-68
2023/06/21 03:52:45;;;;;;;36.17;22.30;;;17.30;99.90;;;;;;5044112;28;20307;-68
2023/06/21 03:55:11;;;;;;;31.17;20.97;;;17.30;99.90;;;;;;5029160;28;20446;-68
2023/06/21 03:57:40;;;;;;;34.00;20.60;;;17.30;99.90;;;;;;5047250;28;20303;-68
2023/06/21 04:00:08;;;;;;;35.10;20.93;;;17.30;99.90;;;;;;5046021;28;20032;-68
2023/06/21 04:02:34;;;;;;;34.67;20.37;;;17.30;99.90;;;;;;5046849;28;20271;-68
2023/06/21 04:05:00;;;;;;;31.93;20.23;;;17.30;99.90;;;;;;5045639;28;20390;-68
2023/06/21 04:07:25;;;;;;;36.13;21.93;;;17.30;99.90;;;;;;5046699;28;20052;-68
2023/06/21 04:09:51;;;;;;;34.40;19.97;;;17.30;99.90;;;;;;5046742;28;20068;-68
2023/06/21 04:12:17;;;;;;;30.77;18.57;;;17.30;99.90;;;;;;5029462;28;20511;-68
2023/06/21 04:14:43;;;;;;;29.63;18.70;;;17.40;99.90;;;;;;5047403;28;20056;-68
2023/06/21 04:17:08;;;;;;;28.30;17.87;;;17.40;99.90;;;;;;5046429;28;20037;-68
2023/06/21 04:19:34;;;;;;;30.03;17.33;;;17.40;99.90;;;;;;5045899;28;20417;-68
2023/06/21 04:22:00;;;;;;;28.23;16.80;;;17.40;99.90;;;;;;5039390;28;20100;-68
2023/06/21 04:24:26;;;;;;;29.27;15.83;;;17.40;99.90;;;;;;5046414;28;20087;-68
2023/06/21 04:26:53;;;;;;;25.00;16.30;;;17.50;99.90;;;;;;5046455;28;20574;-68
2023/06/21 04:29:20;;;;;;;27.70;17.10;;;17.50;99.90;;;;;;5045926;28;20037;-68
2023/06/21 04:31:46;;;;;;;25.70;15.33;;;17.50;99.90;;;;;;5045975;28;20296;-68
2023/06/21 04:34:12;;;;;;;25.50;14.53;;;17.50;99.90;;;;;;5050246;28;20307;-68
2023/06/21 04:36:38;;;;;;;22.83;14.43;;;17.70;99.90;;;;;;5064664;28;20504;-67
2023/06/21 04:39:03;;;;;;;22.10;14.70;;;18.00;99.90;;;;;;5050381;28;20048;-68
2023/06/21 04:41:29;;;;;;;21.50;14.43;;;18.50;99.90;;;;;;5051066;28;20287;-68
2023/06/21 04:43:55;;;;;;;21.90;13.63;;;18.90;99.90;;;;;;5047766;28;20080;-68
2023/06/21 04:46:23;;;;;;;21.37;13.83;;;19.30;99.50;;;;;;5066759;28;20127;-68
2023/06/21 04:48:49;;;;;;;21.30;14.20;;;19.40;97.40;;;;;;5050171;28;20040;-68
2023/06/21 04:51:15;;;;;;;22.03;13.67;;;19.70;96.00;;;;;;5049513;28;20379;-68
2023/06/21 04:53:50;;;;;;;17.27;12.47;;;19.90;93.40;;;;;;5033370;28;20052;-68
2023/06/21 04:56:16;;;;;;;21.90;13.85;;;19.90;93.40;;;;;;5050187;28;20283;-68
2023/06/21 04:58:41;;;;;;;22.00;13.60;;;20.10;93.30;;;;;;5050635;28;20037;-68
2023/06/21 05:01:07;;;;;;;17.63;12.30;;;20.40;91.50;;;;;;5049662;28;20047;-68
2023/06/21 05:03:33;;;;;;;17.93;12.53;;;20.70;89.10;;;;;;5050389;28;20132;-68
2023/06/21 05:05:59;;;;;;;21.80;11.87;;;20.80;88.50;;;;;;5066728;28;20044;-68
2023/06/21 05:08:25;;;;;;;20.90;12.00;;;21.10;86.70;;;;;;5049987;28;20448;-68
2023/06/21 05:10:51;;;;;;;21.50;11.63;;;21.40;86.50;;;;;;5050296;28;20041;-68
2023/06/21 05:13:17;;;;;;;18.67;11.50;;;21.60;84.20;;;;;;5049302;28;20497;-68
2023/06/21 05:15:43;;;;;;;20.03;11.10;;;21.70;83.50;;;;;;5045157;28;20071;-68
2023/06/21 05:18:09;;;;;;;19.00;11.50;;;21.70;81.90;;;;;;5049998;28;20114;-68
2023/06/21 05:20:35;;;;;;;16.20;10.87;;;21.80;82.00;;;;;;5049724;28;20029;-68
2023/06/21 05:23:00;;;;;;;20.50;11.23;;;21.90;81.20;;;;;;5048155;28;20396;-68
2023/06/21 05:25:26;;;;;;;16.53;11.20;;;22.00;81.50;;;;;;5048696;28;20111;-68
2023/06/21 05:27:52;;;;;;;18.90;11.47;;;22.30;80.50;;;;;;5032389;28;20049;-68
2023/06/21 05:30:18;;;;;;;18.83;11.07;;;22.50;79.00;;;;;;5059909;28;20551;-68
2023/06/21 05:32:44;;;;;;;16.47;11.30;;;22.60;79.70;;;;;;5046751;28;20063;-68
2023/06/21 05:35:10;;;;;;;21.83;12.10;;;22.60;78.80;;;;;;5063723;28;20048;-68
2023/06/21 05:37:36;;;;;;;19.63;11.87;;;22.50;78.20;;;;;;5046368;28;20040;-67
2023/06/21 05:40:06;;;;;;;19.00;13.13;;;22.70;78.30;;;;;;5046096;28;20037;-68
2023/06/21 05:42:32;;;;;;;15.63;10.60;;;22.80;77.00;;;;;;5046588;28;20049;-68
2023/06/21 05:44:58;;;;;;;19.30;12.30;;;22.70;76.40;;;;;;5046862;28;20056;-68
2023/06/21 05:47:24;;;;;;;20.17;12.40;;;22.70;76.70;;;;;;5046271;28;20051;-68
2023/06/21 05:49:49;;;;;;;19.83;12.27;;;23.10;77.10;;;;;;5030121;28;20047;-68
2023/06/21 05:52:16;;;;;;;14.63;10.97;;;23.10;75.60;;;;;;5045962;28;20040;-68
2023/06/21 05:54:43;;;;;;;20.00;12.13;;;23.10;76.00;;;;;;5046638;28;20124;-68
2023/06/21 05:57:09;;;;;;;20.77;12.07;;;22.70;76.40;;;;;;5057588;28;20068;-68
2023/06/21 05:59:35;;;;;;;19.10;11.90;;;22.40;77.90;;;;;;5046874;28;20511;-68
2023/06/21 06:02:01;;;;;;;19.93;12.53;;;22.30;77.50;;;;;;5046936;28;20036;-68
2023/06/21 06:04:27;;;;;;;18.23;12.23;;;22.70;77.80;;;;;;5044036;28;20041;-68
2023/06/21 06:06:52;;;;;;;18.43;10.83;;;22.90;76.70;;;;;;5045712;28;20381;-68
2023/06/21 06:09:18;;;;;;;17.83;11.80;;;22.80;74.80;;;;;;5061659;28;20094;-68
2023/06/21 06:11:44;;;;;;;16.93;11.83;;;22.80;75.30;;;;;;5045657;28;20128;-68
2023/06/21 06:14:13;;;;;;;15.93;11.93;;;22.90;75.60;;;;;;5046121;28;20041;-68
2023/06/21 06:16:39;;;;;;;19.80;12.10;;;23.10;74.90;;;;;;5041475;28;20040;-68
2023/06/21 06:19:05;;;;;;;17.60;11.10;;;22.70;74.80;;;;;;5043043;28;20078;-68
2023/06/21 06:21:31;;;;;;;15.20;10.97;;;22.60;76.10;;;;;;5044807;28;20045;-68
2023/06/21 06:23:56;;;;;;;21.20;11.23;;;23.00;76.10;;;;;;5044486;28;20623;-68
2023/06/21 06:26:24;;;;;;;16.57;10.03;;;23.10;74.80;;;;;;5029186;28;20052;-68
2023/06/21 06:28:51;;;;;;;16.73;10.83;;;23.30;73.40;;;;;;5045843;28;20078;-68
2023/06/21 06:31:23;;;;;;;13.30;9.37;;;23.60;73.00;;;;;;5007763;28;1119871;-68
2023/06/21 06:33:49;;;;;;;14.40;9.50;;;23.70;71.80;;;;;;5046832;28;20413;-68
2023/06/21 06:36:15;;;;;;;16.37;10.20;;;23.50;72.50;;;;;;5042405;28;20044;-68
2023/06/21 06:38:41;;;;;;;13.13;9.50;;;23.40;73.00;;;;;;5049208;28;20033;-67
2023/06/21 06:41:07;;;;;;;14.90;9.13;;;23.60;73.00;;;;;;5034154;28;20208;-67
2023/06/21 06:43:34;;;;;;;12.70;8.93;;;23.70;71.70;;;;;;5051894;28;20045;-67
2023/06/21 06:45:59;;;;;;;13.50;9.07;;;23.70;71.80;;;;;;5034352;28;20039;-67
2023/06/21 06:48:26;;;;;;;13.47;9.23;;;23.50;72.40;;;;;;5035311;28;20040;-67
2023/06/21 06:50:52;;;;;;;13.10;9.37;;;23.30;73.10;;;;;;5053377;28;20045;-68
2023/06/21 06:53:18;;;;;;;13.07;8.73;;;23.10;72.50;;;;;;5036354;28;20109;-68
2023/06/21 06:55:44;;;;;;;13.93;8.20;;;22.80;73.50;;;;;;5037634;28;20116;-69
2023/06/21 06:58:10;;;;;;;16.30;9.20;;;22.60;74.60;;;;;;5071101;28;20033;-69
2023/06/21 07:00:36;;;;;;;14.20;10.00;;;22.40;75.10;;;;;;5054180;28;20037;-69
2023/06/21 07:03:01;;;;;;;13.57;8.53;;;22.50;75.60;;;;;;5052758;28;20416;-69
2023/06/21 07:05:27;;;;;;;11.23;8.57;;;22.30;75.30;;;;;;5049627;28;20079;-68
2023/06/21 07:07:55;;;;;;;14.60;9.53;;;22.10;74.90;;;;;;5054892;28;20651;-68
2023/06/21 07:10:21;;;;;;;15.77;8.80;;;22.10;77.10;;;;;;5036352;28;20041;-68
2023/06/21 07:12:47;;;;;;;10.40;7.63;;;22.10;77.80;;;;;;5037440;28;20395;-69
2023/06/21 07:15:12;;;;;;;11.93;6.40;;;22.20;76.40;;;;;;5028548;28;20032;-69
2023/06/21 07:17:38;;;;;;;9.50;7.20;;;22.20;75.70;;;;;;5037670;28;20033;-68
2023/06/21 07:20:08;;;;;;;12.90;7.20;;;22.20;76.20;;;;;;5035619;28;20037;-68
2023/06/21 07:22:33;;;;;;;11.70;6.83;;;22.30;76.80;;;;;;5052735;28;20073;-69
2023/06/21 07:24:59;;;;;;;13.30;7.27;;;22.10;75.80;;;;;;5036771;28;20052;-68
2023/06/21 07:27:28;;;;;;;12.13;7.27;;;21.80;75.40;;;;;;5031803;28;20074;-69
2023/06/21 07:29:54;;;;;;;13.93;7.87;;;21.60;77.20;;;;;;5053787;28;20056;-69
2023/06/21 07:32:19;;;;;;;9.33;7.10;;;21.40;77.80;;;;;;5051368;28;20150;-69
2023/06/21 07:34:45;;;;;;;9.43;7.63;;;21.40;78.00;;;;;;5049131;28;20500;-68
2023/06/21 07:37:11;;;;;;;9.73;7.53;;;21.50;78.00;;;;;;5052863;28;20041;-69
2023/06/21 07:39:37;;;;;;;13.70;8.20;;;21.60;78.60;;;;;;5052810;28;20393;-69
2023/06/21 07:42:04;;;;;;;12.60;7.80;;;21.80;78.30;;;;;;5028754;28;20033;-69
2023/06/21 07:44:31;;;;;;;9.40;7.37;;;21.90;77.20;;;;;;5033065;28;20033;-68
2023/06/21 07:46:57;;;;;;;10.47;7.37;;;22.00;76.10;;;;;;5050768;28;20124;-72
2023/06/21 07:49:22;;;;;;;11.97;7.50;;;22.00;75.70;;;;;;5033704;28;20040;-69
2023/06/21 07:51:49;;;;;;;9.93;7.77;;;22.00;76.00;;;;;;5052834;28;20037;-68
2023/06/21 07:54:15;;;;;;;11.17;7.67;;;22.10;75.60;;;;;;5047671;28;20041;-69
2023/06/21 07:56:41;;;;;;;11.97;8.17;;;22.10;75.50;;;;;;5052147;28;20043;-68
2023/06/21 07:59:07;;;;;;;10.43;8.20;;;22.30;75.50;;;;;;5052634;28;20457;-68
2023/06/21 08:01:35;;;;;;;11.63;7.23;;;22.40;75.10;;;;;;5058453;28;20029;-68
2023/06/21 08:04:01;;;;;;;10.00;8.33;;;22.50;74.90;;;;;;5051895;28;20045;-68
2023/06/21 08:06:27;;;;;;;11.63;8.53;;;22.40;72.80;;;;;;5051036;28;20060;-68
2023/06/21 08:08:53;;;;;;;11.70;8.60;;;22.30;73.60;;;;;;5028646;28;20134;-68
2023/06/21 08:11:18;;;;;;;10.70;8.43;;;22.20;74.70;;;;;;5046610;28;20136;-68
2023/06/21 08:13:44;;;;;;;10.97;8.87;;;22.30;75.10;;;;;;5049629;28;20028;-68
2023/06/21 08:16:10;;;;;;;12.00;8.60;;;22.50;74.50;;;;;;5043325;28;20037;-68
2023/06/21 08:18:36;;;;;;;10.97;8.73;;;22.50;73.80;;;;;;5050848;28;20536;-68
2023/06/21 08:21:05;;;;;;;10.67;8.10;;;22.60;73.60;;;;;;5035062;28;20052;-68
2023/06/21 08:23:31;;;;;;;9.97;8.47;;;22.50;72.30;;;;;;5044816;28;20045;-68
2023/06/21 08:25:57;;;;;;;11.47;8.57;;;22.50;74.10;;;;;;5043235;28;20052;-69
2023/06/21 08:28:22;;;;;;;12.53;8.73;;;22.60;73.30;;;;;;5027941;28;20041;-69
2023/06/21 08:30:48;;;;;;;11.00;8.10;;;22.80;73.40;;;;;;5028383;28;20040;-69
2023/06/21 08:33:14;;;;;;;12.87;8.77;;;22.80;72.30;;;;;;5042428;28;20130;-69
2023/06/21 08:35:39;;;;;;;10.73;8.20;;;23.00;72.30;;;;;;5046503;28;20055;-69
2023/06/21 08:38:06;;;;;;;11.40;8.50;;;23.10;72.30;;;;;;5028470;28;20048;-69
2023/06/21 08:40:33;;;;;;;10.03;8.57;;;23.10;71.80;;;;;;5031322;28;20045;-69
2023/06/21 08:43:00;;;;;;;10.03;8.03;;;23.10;71.30;;;;;;5044762;28;20041;-69
2023/06/21 08:45:26;;;;;;;11.67;9.20;;;23.10;72.20;;;;;;5048017;28;20029;-69
2023/06/21 08:47:52;;;;;;;9.30;7.17;;;23.30;70.20;;;;;;5046681;28;20045;-69
2023/06/21 08:50:19;;;;;;;10.57;7.00;;;23.30;70.10;;;;;;5041889;28;20041;-70
2023/06/21 08:52:46;;;;;;;10.93;7.03;;;23.40;70.70;;;;;;5035996;28;20746;-70
2023/06/21 08:55:16;;;;;;;8.80;7.47;;;23.60;70.90;;;;;;5038718;28;20061;-70
2023/06/21 08:58:05;;;;;;;9.90;7.37;;;23.80;69.60;;;;;;5047513;28;20030;-67
2023/06/21 09:00:58;;;;;;;12.63;8.17;;;23.80;68.20;;;;;;5040570;28;20037;-67
2023/06/21 09:03:41;;;;;;;7.40;6.20;;;23.80;68.60;;;;;;5041072;28;20060;-68
2023/06/21 09:06:13;;;;;;;7.70;6.60;;;23.90;68.60;;;;;;5042691;28;20045;-67
2023/06/21 09:08:48;;;;;;;10.47;7.00;;;23.80;66.50;;;;;;5043235;28;20047;-69
2023/06/21 09:11:24;;;;;;;8.47;6.23;;;23.70;67.60;;;;;;5026430;28;20603;-70
2023/06/21 09:13:51;;;;;;;8.13;5.90;;;23.90;68.90;;;;;;5043071;28;20060;-70
2023/06/21 09:16:17;;;;;;;7.57;6.20;;;23.90;67.20;;;;;;5043873;28;20112;-70
2023/06/21 09:18:44;;;;;;;8.90;6.30;;;23.90;67.70;;;;;;5046279;28;20036;-70
2023/06/21 09:21:10;;;;;;;9.40;7.03;;;23.90;67.70;;;;;;5023490;28;20044;-70
2023/06/21 09:23:38;;;;;;;9.37;6.83;;;23.90;68.60;;;;;;5049381;28;20047;-70
2023/06/21 09:26:04;;;;;;;10.87;7.60;;;24.00;69.20;;;;;;5049211;28;20071;-70
2023/06/21 09:28:31;;;;;;;12.77;7.57;;;24.30;68.90;;;;;;5048988;28;20032;-70
2023/06/21 09:30:56;;;;;;;9.07;6.77;;;24.50;69.00;;;;;;5048938;28;20753;-70
2023/06/21 09:33:26;;;;;;;7.93;6.50;;;24.80;67.90;;;;;;5046449;28;20131;-70
2023/06/21 09:35:52;;;;;;;11.20;7.10;;;25.00;66.90;;;;;;5041054;28;20404;-70
2023/06/21 09:38:24;;;;;;;10.10;7.60;;;25.20;66.90;;;;;;5046156;28;20037;-70
2023/06/21 09:40:50;;;;;;;10.30;7.83;;;25.30;64.90;;;;;;5046185;28;20299;-70
2023/06/21 09:43:19;;;;;;;10.40;7.60;;;25.30;64.90;;;;;;5048207;28;20045;-70
2023/06/21 09:46:03;;;;;;;14.97;7.57;;;25.40;64.90;;;;;;5044835;28;20447;-70
2023/06/21 09:48:31;;;;;;;8.53;6.23;;;25.40;65.20;;;;;;5048571;28;20044;-68
2023/06/21 09:50:57;;;;;;;10.03;7.07;;;25.60;63.90;;;;;;5048731;28;20071;-68
2023/06/21 09:53:24;;;;;;;9.70;7.10;;;25.40;63.20;;;;;;5048649;28;20033;-68
2023/06/21 09:55:50;;;;;;;9.50;7.30;;;25.40;64.00;;;;;;5043460;28;20044;-68
2023/06/21 09:58:15;;;;;;;8.13;6.70;;;25.50;64.60;;;;;;5048385;28;20032;-70
2023/06/21 10:00:42;;;;;;;9.90;7.47;;;25.70;63.60;;;;;;5032045;28;20548;-68
2023/06/21 10:03:09;;;;;;;9.60;7.47;;;25.90;63.70;;;;;;5047220;28;20280;-68
2023/06/21 10:05:35;;;;;;;9.83;7.70;;;26.00;63.40;;;;;;5047368;28;20065;-68
2023/06/21 10:08:04;;;;;;;10.63;8.17;;;26.20;63.60;;;;;;5046690;28;20540;-68
2023/06/21 10:10:32;;;;;;;9.23;8.30;;;26.40;62.30;;;;;;5029064;28;20040;-70
2023/06/21 10:12:58;;;;;;;12.03;9.20;;;26.70;61.70;;;;;;5041667;28;20059;-70
2023/06/21 10:15:24;;;;;;;11.03;9.27;;;27.00;61.40;;;;;;5045799;28;20041;-70
2023/06/21 10:17:52;;;;;;;11.97;9.63;;;27.20;60.00;;;;;;5045007;28;20041;-68
2023/06/21 10:20:21;;;;;;;13.90;9.80;;;27.30;60.20;;;;;;5059676;28;20040;-70
2023/06/21 10:22:51;;;;;;;10.87;9.63;;;27.40;59.20;;;;;;5046936;28;20271;-68
2023/06/21 10:25:19;;;;;;;11.13;8.83;;;27.50;59.70;;;;;;5061169;28;20032;-68
2023/06/21 10:27:46;;;;;;;10.90;9.80;;;27.70;58.30;;;;;;5047159;28;20067;-70
2023/06/21 10:30:19;;;;;;;13.33;9.73;;;27.70;58.70;;;;;;5037693;28;20104;-70
2023/06/21 10:32:47;;;;;;;10.90;9.27;;;27.80;58.00;;;;;;5039297;28;20056;-68
2023/06/21 10:35:17;;;;;;;10.97;9.87;;;27.90;57.90;;;;;;5035703;28;20260;-68
2023/06/21 10:38:19;;;;;;;12.57;11.33;;;27.90;58.00;;;;;;5042141;28;20078;-69
2023/06/21 10:40:45;;;;;;;15.27;13.23;;;27.50;57.50;;;;;;5039601;28;20055;-68
2023/06/21 10:43:13;;;;;;;12.70;10.87;;;27.10;58.80;;;;;;5044329;28;20029;-68
2023/06/21 10:45:40;;;;;;;13.77;9.87;;;27.00;59.60;;;;;;5055524;28;20044;-68
2023/06/21 10:48:08;;;;;;;12.97;10.33;;;27.20;61.20;;;;;;5042550;28;20049;-69
2023/06/21 10:50:36;;;;;;;17.80;11.93;;;27.50;59.20;;;;;;5040916;28;20053;-68
2023/06/21 10:53:04;;;;;;;12.17;10.20;;;27.50;58.30;;;;;;5041692;28;20056;-68
2023/06/21 10:55:31;;;;;;;9.97;8.63;;;27.50;57.60;;;;;;5039646;28;20069;-68
2023/06/21 10:57:57;;;;;;;9.90;8.27;;;27.60;57.60;;;;;;5043005;28;20044;-68
2023/06/21 11:00:25;;;;;;;7.83;6.33;;;27.70;57.80;;;;;;5024945;28;20482;-68
2023/06/21 11:02:51;;;;;;;8.20;6.70;;;27.80;55.00;;;;;;5025829;28;20082;-68
2023/06/21 11:05:25;;;;;;;11.33;8.77;;;27.70;56.40;;;;;;5038283;28;20083;-70
2023/06/21 11:07:50;;;;;;;7.30;6.27;;;27.80;56.40;;;;;;5055194;28;20048;-70
2023/06/21 11:10:19;;;;;;;8.57;6.67;;;27.80;55.60;;;;;;5043309;28;20054;-70
2023/06/21 11:12:45;;;;;;;8.47;7.50;;;27.80;55.80;;;;;;5042815;28;20181;-69
2023/06/21 11:15:20;;;;;;;9.03;6.60;;;27.80;54.40;;;;;;5045899;28;20044;-70
2023/06/21 11:18:05;;;;;;;9.33;6.03;;;27.80;54.00;;;;;;5042129;28;20033;-69
2023/06/21 11:20:47;;;;;;;9.03;6.97;;;27.80;54.20;;;;;;5038452;28;20057;-70
2023/06/21 11:23:25;;;;;;;8.97;8.07;;;28.00;54.00;;;;;;5040449;28;20041;-70
2023/06/21 11:26:03;;;;;;;10.80;9.70;;;27.90;54.40;;;;;;5044353;28;20436;-70
2023/06/21 11:28:33;;;;;;;12.67;10.00;;;27.90;54.50;;;;;;5042539;28;20045;-70
2023/06/21 11:30:59;;;;;;;16.10;9.80;;;27.70;55.60;;;;;;5059747;28;20120;-69
2023/06/21 11:33:43;;;;;;;10.60;9.13;;;27.60;55.30;;;;;;5041575;28;20529;-70
2023/06/21 11:36:09;;;;;;;11.67;10.47;;;27.50;55.90;;;;;;5037069;28;20260;-70
2023/06/21 11:38:36;;;;;;;10.47;9.40;;;27.10;56.60;;;;;;5056595;28;20047;-69
2023/06/21 11:41:22;;;;;;;13.63;10.13;;;26.50;56.70;;;;;;5043511;28;20041;-70
2023/06/21 11:43:55;;;;;;;9.60;6.40;;;26.00;58.40;;;;;;5045195;28;20041;-70
2023/06/21 11:46:24;;;;;;;8.10;5.40;;;25.80;58.20;;;;;;5056259;28;20409;-69
2023/06/21 11:48:58;;;;;;;10.67;6.80;;;25.80;58.20;;;;;;5049081;28;20531;-69
2023/06/21 11:51:24;;;;;;;10.40;8.52;;;26.10;58.60;;;;;;5041465;28;20037;-70
2023/06/21 11:53:51;;;;;;;12.23;7.57;;;26.30;59.30;;;;;;5040453;28;20750;-70
2023/06/21 11:56:19;;;;;;;11.20;6.63;;;26.50;59.10;;;;;;5030661;28;20141;-70
2023/06/21 11:58:46;;;;;;;9.47;6.90;;;26.50;57.50;;;;;;5046055;28;20040;-70
2023/06/21 12:01:13;;;;;;;9.17;6.53;;;26.70;58.00;;;;;;5045367;28;20116;-69
2023/06/21 12:03:39;;;;;;;9.20;6.40;;;26.80;57.40;;;;;;5046204;28;20127;-69
2023/06/21 12:06:05;;;;;;;8.97;7.07;;;27.00;57.00;;;;;;5042469;28;20183;-70
2023/06/21 12:08:37;;;;;;;11.20;7.87;;;27.30;56.60;;;;;;5048289;28;20405;-69
2023/06/21 12:11:08;;;;;;;7.97;6.47;;;27.60;55.70;;;;;;5047697;28;20121;-69
2023/06/21 12:13:35;;;;;;;8.93;6.80;;;27.60;55.40;;;;;;5034832;28;20049;-70
2023/06/21 12:16:03;;;;;;;10.23;7.17;;;27.80;56.50;;;;;;5038923;28;20032;-70
2023/06/21 12:18:30;;;;;;;14.57;12.20;;;28.00;55.10;;;;;;5045322;28;20493;-69
2023/06/21 12:20:58;;;;;;;14.77;12.70;;;27.90;56.90;;;;;;5061849;28;20055;-70
2023/06/21 12:23:25;;;;;;;18.37;13.23;;;27.40;58.30;;;;;;5046189;28;20144;-70
2023/06/21 12:25:55;;;;;;;18.03;13.53;;;27.00;59.40;;;;;;5047500;28;20451;-70
2023/06/21 12:28:22;;;;;;;17.17;13.70;;;26.50;61.50;;;;;;5061052;28;20128;-69
2023/06/21 12:30:54;;;;;;;16.63;14.10;;;26.20;63.00;;;;;;5045697;28;20037;-70
2023/06/21 12:33:24;;;;;;;19.00;13.50;;;26.30;64.30;;;;;;5046585;28;20147;-70
2023/06/21 12:35:50;;;;;;;18.93;14.77;;;26.30;63.10;;;;;;5046833;28;20124;-70